Time;durP1;ratioP1;P1;durP2;ratioP2;P2;SDS_P1;SDS_P2;PMS_P1;PMS_P2;Temp;Humidity;BMP_temperature;BMP_pressure;BME280_temperature;BME280_humidity;BME280_pressure;Samples;Min_cycle;Max_cycle;Signal;HPM_P1;HPM_P2
2021/11/15 00:02:01;;;;;;;1.38;1.33;;;;;;;;;;5018296;28;20578;-73
2021/11/15 00:04:27;;;;;;;9.05;4.00;;;;;;;;;;5017432;28;20033;-73
2021/11/15 00:06:53;;;;;;;7.65;3.97;;;;;;;;;;5012044;28;20056;-73
2021/11/15 00:09:19;;;;;;;4.95;1.55;;;;;;;;;;5013441;28;20104;-73
2021/11/15 00:11:45;;;;;;;3.67;2.65;;;;;;;;;;5011989;28;20548;-73
2021/11/15 00:14:11;;;;;;;3.88;1.45;;;;;;;;;;5011740;28;20042;-73
2021/11/15 00:16:37;;;;;;;2.25;1.88;;;;;;;;;;5012258;28;20531;-73
2021/11/15 00:19:03;;;;;;;5.68;1.90;;;;;;;;;;5009867;28;20473;-73
2021/11/15 00:21:29;;;;;;;6.95;3.60;;;;;;;;;;5011926;28;20524;-72
2021/11/15 00:23:55;;;;;;;2.75;1.80;;;;;;;;;;5010903;28;20113;-72
2021/11/15 00:26:21;;;;;;;7.32;3.40;;;;;;;;;;5012215;28;20124;-73
2021/11/15 00:28:47;;;;;;;1.98;1.13;;;;;;;;;;5011452;28;20109;-72
2021/11/15 00:31:13;;;;;;;5.68;1.95;;;;;;;;;;5011894;28;20157;-72
2021/11/15 00:33:39;;;;;;;9.32;4.93;;;;;;;;;;5012487;28;20033;-73
2021/11/15 00:36:05;;;;;;;4.78;2.60;;;;;;;;;;5011084;28;20440;-73
2021/11/15 00:38:31;;;;;;;2.10;1.95;;;;;;;;;;5014821;28;20030;-73
2021/11/15 00:40:57;;;;;;;2.88;2.30;;;;;;;;;;5012707;28;20041;-72
2021/11/15 00:43:23;;;;;;;2.20;1.83;;;;;;;;;;5009302;28;20069;-73
2021/11/15 00:45:49;;;;;;;4.03;2.60;;;;;;;;;;5015134;28;20099;-73
2021/11/15 00:48:15;;;;;;;2.75;2.50;;;;;;;;;;5011002;28;20105;-72
2021/11/15 00:50:41;;;;;;;2.90;2.53;;;;;;;;;;5011288;28;20058;-72
2021/11/15 00:53:07;;;;;;;2.80;2.53;;;;;;;;;;5012366;28;20500;-73
2021/11/15 00:55:34;;;;;;;6.57;3.55;;;;;;;;;;5010688;28;20022;-72
2021/11/15 00:58:01;;;;;;;2.28;1.95;;;;;;;;;;5011938;28;20477;-73
2021/11/15 01:00:28;;;;;;;2.97;2.78;;;;;;;;;;5009551;28;20053;-73
2021/11/15 01:02:55;;;;;;;1.77;1.67;;;;;;;;;;5011997;28;20026;-72
2021/11/15 01:05:22;;;;;;;5.70;3.80;;;;;;;;;;5011445;28;20087;-73
2021/11/15 01:07:47;;;;;;;2.58;1.80;;;;;;;;;;5011109;28;20506;-73
2021/11/15 01:10:15;;;;;;;0.70;0.70;;;;;;;;;;5011592;28;20125;-73
2021/11/15 01:12:41;;;;;;;5.07;2.35;;;;;;;;;;5010439;28;20029;-73
2021/11/15 01:15:10;;;;;;;2.15;1.95;;;;;;;;;;5011616;28;20030;-74
2021/11/15 01:17:36;;;;;;;2.53;1.42;;;;;;;;;;5010797;28;20045;-73
2021/11/15 01:20:04;;;;;;;1.92;1.75;;;;;;;;;;5010086;28;20025;-73
2021/11/15 01:22:29;;;;;;;1.42;1.40;;;;;;;;;;5011269;28;20045;-73
2021/11/15 01:24:55;;;;;;;2.42;2.28;;;;;;;;;;5010331;28;20041;-73
2021/11/15 01:27:21;;;;;;;1.33;1.23;;;;;;;;;;5010221;28;20029;-72
2021/11/15 01:29:47;;;;;;;2.35;2.25;;;;;;;;;;5011592;28;20519;-72
2021/11/15 01:32:13;;;;;;;3.65;3.35;;;;;;;;;;5009463;28;20029;-73
2021/11/15 01:34:39;;;;;;;5.43;3.05;;;;;;;;;;5010252;28;20044;-72
2021/11/15 01:37:05;;;;;;;5.25;3.15;;;;;;;;;;5008696;28;20030;-73
2021/11/15 01:39:31;;;;;;;2.95;2.67;;;;;;;;;;5009731;28;20026;-73
2021/11/15 01:41:57;;;;;;;2.45;1.73;;;;;;;;;;5009050;28;20467;-73
2021/11/15 01:44:23;;;;;;;2.58;2.47;;;;;;;;;;5008233;28;20048;-73
2021/11/15 01:46:49;;;;;;;3.85;2.25;;;;;;;;;;5010358;28;20448;-73
2021/11/15 01:49:15;;;;;;;3.78;2.47;;;;;;;;;;5010018;28;20030;-74
2021/11/15 01:51:41;;;;;;;0.70;0.70;;;;;;;;;;5010100;28;20088;-73
2021/11/15 01:54:07;;;;;;;4.68;3.10;;;;;;;;;;5009294;28;20058;-73
2021/11/15 01:56:33;;;;;;;7.65;3.33;;;;;;;;;;5009704;28;20036;-72
2021/11/15 01:59:01;;;;;;;2.17;2.05;;;;;;;;;;5009216;28;20041;-72
2021/11/15 02:01:28;;;;;;;8.18;3.75;;;;;;;;;;5012752;28;20072;-73
2021/11/15 02:03:54;;;;;;;5.20;2.28;;;;;;;;;;5040768;28;20026;-73
2021/11/15 02:06:20;;;;;;;2.85;2.63;;;;;;;;;;5010004;28;20042;-72
2021/11/15 02:08:46;;;;;;;4.63;2.28;;;;;;;;;;5008144;28;20111;-73
2021/11/15 02:11:12;;;;;;;2.60;2.47;;;;;;;;;;5009856;28;20030;-72
2021/11/15 02:13:39;;;;;;;3.13;2.83;;;;;;;;;;5008896;28;20030;-73
2021/11/15 02:16:05;;;;;;;2.35;2.15;;;;;;;;;;5009756;28;20117;-73
2021/11/15 02:18:31;;;;;;;7.78;3.40;;;;;;;;;;5008691;28;20030;-73
2021/11/15 02:20:58;;;;;;;5.22;2.92;;;;;;;;;;5008762;28;20024;-73
2021/11/15 02:23:25;;;;;;;6.25;3.90;;;;;;;;;;5010892;28;20045;-72
2021/11/15 02:25:52;;;;;;;2.90;2.70;;;;;;;;;;5009782;28;20029;-73
2021/11/15 02:28:19;;;;;;;1.92;1.80;;;;;;;;;;5009012;28;20034;-73
2021/11/15 02:30:44;;;;;;;4.15;3.17;;;;;;;;;;5009249;28;20033;-73
2021/11/15 02:33:11;;;;;;;2.40;1.95;;;;;;;;;;5008953;28;20034;-73
2021/11/15 02:35:38;;;;;;;6.10;4.18;;;;;;;;;;5011831;28;20469;-73
2021/11/15 02:38:04;;;;;;;16.02;4.57;;;;;;;;;;5008756;28;20641;-73
2021/11/15 02:40:29;;;;;;;4.13;2.70;;;;;;;;;;5009428;28;20408;-73
2021/11/15 02:42:57;;;;;;;6.75;1.98;;;;;;;;;;5008352;28;20138;-72
2021/11/15 02:45:23;;;;;;;1.40;1.25;;;;;;;;;;5008313;28;20535;-72
2021/11/15 02:47:49;;;;;;;2.00;1.90;;;;;;;;;;5007801;28;20408;-72
2021/11/15 02:50:18;;;;;;;2.40;2.20;;;;;;;;;;5008352;28;20473;-73
2021/11/15 02:52:45;;;;;;;13.35;1.85;;;;;;;;;;5008938;28;20057;-73
2021/11/15 02:55:12;;;;;;;1.63;1.52;;;;;;;;;;5008890;28;20034;-72
2021/11/15 02:57:37;;;;;;;8.32;2.10;;;;;;;;;;5009001;28;20032;-73
2021/11/15 03:00:05;;;;;;;4.47;2.05;;;;;;;;;;5008339;28;20038;-73
2021/11/15 03:02:31;;;;;;;6.68;2.03;;;;;;;;;;5009158;28;20026;-73
2021/11/15 03:04:56;;;;;;;2.92;1.80;;;;;;;;;;5010789;28;20030;-73
2021/11/15 03:07:22;;;;;;;2.92;2.65;;;;;;;;;;5013372;28;20514;-73
2021/11/15 03:09:48;;;;;;;5.50;4.20;;;;;;;;;;5014036;28;20393;-73
2021/11/15 03:12:14;;;;;;;2.80;2.05;;;;;;;;;;5013883;28;20060;-73
2021/11/15 03:14:40;;;;;;;3.15;2.85;;;;;;;;;;5014496;28;20622;-73
2021/11/15 03:17:06;;;;;;;5.22;3.42;;;;;;;;;;5012590;28;20026;-73
2021/11/15 03:19:32;;;;;;;3.55;3.17;;;;;;;;;;5013006;28;20073;-74
2021/11/15 03:21:58;;;;;;;7.80;3.55;;;;;;;;;;5013378;28;20029;-73
2021/11/15 03:24:24;;;;;;;3.03;2.40;;;;;;;;;;5013534;28;20034;-73
2021/11/15 03:26:50;;;;;;;2.03;1.83;;;;;;;;;;5013692;28;20030;-73
2021/11/15 03:29:16;;;;;;;1.90;1.75;;;;;;;;;;5010308;28;20041;-74
2021/11/15 03:31:42;;;;;;;1.77;1.65;;;;;;;;;;5013761;28;20034;-73
2021/11/15 03:34:09;;;;;;;6.35;3.08;;;;;;;;;;5013178;28;20041;-73
2021/11/15 03:36:35;;;;;;;2.80;1.58;;;;;;;;;;5011232;28;20531;-73
2021/11/15 03:39:01;;;;;;;2.90;2.10;;;;;;;;;;5011155;28;20044;-73
2021/11/15 03:41:30;;;;;;;9.85;3.20;;;;;;;;;;5012440;28;20560;-73
2021/11/15 03:43:56;;;;;;;4.57;2.55;;;;;;;;;;5012971;28;20026;-73
2021/11/15 03:46:22;;;;;;;3.15;2.40;;;;;;;;;;5012561;28;20107;-73
2021/11/15 03:48:50;;;;;;;1.52;1.42;;;;;;;;;;5010045;28;20042;-73
2021/11/15 03:51:16;;;;;;;3.67;1.70;;;;;;;;;;5012251;28;20033;-73
2021/11/15 03:53:42;;;;;;;2.92;2.33;;;;;;;;;;5011144;28;20378;-73
2021/11/15 03:56:11;;;;;;;9.73;1.75;;;;;;;;;;5012430;28;20084;-73
2021/11/15 03:58:37;;;;;;;4.38;2.15;;;;;;;;;;5011585;28;20025;-73
2021/11/15 04:01:03;;;;;;;3.75;2.60;;;;;;;;;;5014280;28;20049;-73
2021/11/15 04:03:32;;;;;;;13.05;2.80;;;;;;;;;;5015926;28;20029;-73
2021/11/15 04:06:02;;;;;;;2.03;1.65;;;;;;;;;;5012591;28;20097;-73
2021/11/15 04:08:28;;;;;;;1.88;1.65;;;;;;;;;;5011357;28;20595;-73
2021/11/15 04:10:54;;;;;;;2.35;1.63;;;;;;;;;;5012288;28;20045;-73
2021/11/15 04:13:22;;;;;;;9.57;2.75;;;;;;;;;;5012230;28;20038;-73
2021/11/15 04:15:49;;;;;;;2.63;2.03;;;;;;;;;;5002275;28;20018;-73
2021/11/15 04:18:17;;;;;;;2.22;1.98;;;;;;;;;;5010464;28;20374;-73
2021/11/15 04:20:43;;;;;;;5.38;2.33;;;;;;;;;;5015292;28;20033;-73
2021/11/15 04:23:09;;;;;;;2.25;1.70;;;;;;;;;;5011024;28;20111;-73
2021/11/15 04:25:36;;;;;;;4.40;3.13;;;;;;;;;;5011224;28;20068;-73
2021/11/15 04:28:02;;;;;;;3.40;1.83;;;;;;;;;;5010057;28;20053;-73
2021/11/15 04:30:31;;;;;;;1.92;1.83;;;;;;;;;;5012371;28;20057;-73
2021/11/15 04:32:57;;;;;;;2.35;2.15;;;;;;;;;;5011314;28;20477;-73
2021/11/15 04:35:23;;;;;;;3.42;2.13;;;;;;;;;;5010676;28;20022;-73
2021/11/15 04:37:49;;;;;;;5.38;3.40;;;;;;;;;;5011218;28;20095;-73
2021/11/15 04:40:15;;;;;;;1.38;1.30;;;;;;;;;;5010052;28;20025;-73
2021/11/15 04:42:42;;;;;;;4.00;2.03;;;;;;;;;;5012507;28;20605;-73
2021/11/15 04:45:08;;;;;;;3.10;2.38;;;;;;;;;;5010289;28;20033;-73
2021/11/15 04:47:34;;;;;;;2.72;2.55;;;;;;;;;;5007655;28;20061;-74
2021/11/15 04:50:00;;;;;;;0.88;0.88;;;;;;;;;;5010884;28;20045;-73
2021/11/15 04:52:26;;;;;;;16.10;3.85;;;;;;;;;;5010486;28;20026;-73
2021/11/15 04:54:52;;;;;;;4.43;2.65;;;;;;;;;;5009838;28;20029;-73
2021/11/15 04:57:18;;;;;;;3.60;1.40;;;;;;;;;;5010971;28;20410;-73
2021/11/15 04:59:45;;;;;;;8.85;3.35;;;;;;;;;;5009313;28;21873;-73
2021/11/15 05:02:11;;;;;;;4.88;3.10;;;;;;;;;;5009659;28;20049;-73
2021/11/15 05:04:37;;;;;;;6.07;2.15;;;;;;;;;;5013937;28;20060;-73
2021/11/15 05:07:03;;;;;;;2.45;2.08;;;;;;;;;;5006995;28;20049;-74
2021/11/15 05:09:29;;;;;;;2.85;2.65;;;;;;;;;;5011591;28;20036;-73
2021/11/15 05:11:55;;;;;;;12.57;2.17;;;;;;;;;;5009851;28;20077;-73
2021/11/15 05:14:21;;;;;;;3.38;3.08;;;;;;;;;;5008970;28;20034;-73
2021/11/15 05:16:48;;;;;;;6.03;3.15;;;;;;;;;;5010201;28;20026;-72
2021/11/15 05:19:14;;;;;;;7.32;3.10;;;;;;;;;;5007649;28;20025;-73
2021/11/15 05:21:40;;;;;;;6.75;3.40;;;;;;;;;;5008938;28;20041;-72
2021/11/15 05:24:06;;;;;;;4.93;2.70;;;;;;;;;;5010095;28;20033;-72
2021/11/15 05:26:32;;;;;;;3.50;2.95;;;;;;;;;;5015042;28;20033;-71
2021/11/15 05:28:58;;;;;;;1.70;1.60;;;;;;;;;;5009955;28;20068;-71
2021/11/15 05:31:25;;;;;;;6.22;3.55;;;;;;;;;;5008248;28;20025;-71
2021/11/15 05:33:51;;;;;;;1.52;1.42;;;;;;;;;;5007621;28;21894;-71
2021/11/15 05:36:17;;;;;;;7.38;1.02;;;;;;;;;;5008200;28;20121;-71
2021/11/15 05:38:43;;;;;;;2.70;1.83;;;;;;;;;;5009276;28;20392;-72
2021/11/15 05:41:08;;;;;;;2.50;2.30;;;;;;;;;;5009014;28;20026;-71
2021/11/15 05:43:34;;;;;;;5.03;2.67;;;;;;;;;;5010055;28;21172;-72
2021/11/15 05:46:00;;;;;;;1.25;1.20;;;;;;;;;;5009471;28;20033;-72
2021/11/15 05:48:26;;;;;;;22.17;3.45;;;;;;;;;;5007615;28;20041;-71
2021/11/15 05:50:52;;;;;;;1.08;1.08;;;;;;;;;;5008113;28;20025;-71
2021/11/15 05:53:18;;;;;;;8.63;1.50;;;;;;;;;;5008774;28;20030;-71
2021/11/15 05:55:44;;;;;;;1.30;1.20;;;;;;;;;;5009739;28;20050;-71
2021/11/15 05:58:11;;;;;;;8.57;1.70;;;;;;;;;;5009563;28;20210;-71
2021/11/15 06:00:39;;;;;;;5.47;3.65;;;;;;;;;;5005770;28;20064;-71
2021/11/15 06:03:05;;;;;;;14.75;3.50;;;;;;;;;;5010315;28;20018;-71
2021/11/15 06:05:31;;;;;;;8.07;3.95;;;;;;;;;;5004381;28;20045;-71
2021/11/15 06:07:57;;;;;;;7.70;1.90;;;;;;;;;;5009964;28;20018;-71
2021/11/15 06:10:23;;;;;;;3.80;1.27;;;;;;;;;;5006733;28;20025;-71
2021/11/15 06:12:50;;;;;;;4.53;2.20;;;;;;;;;;5009319;28;20080;-71
2021/11/15 06:15:18;;;;;;;6.47;3.40;;;;;;;;;;5009972;28;20070;-72
2021/11/15 06:17:44;;;;;;;5.32;2.00;;;;;;;;;;5012688;28;20021;-71
2021/11/15 06:20:11;;;;;;;2.33;2.20;;;;;;;;;;5007277;28;20096;-72
2021/11/15 06:22:36;;;;;;;0.65;0.65;;;;;;;;;;5007173;28;20026;-71
2021/11/15 06:25:03;;;;;;;5.07;3.45;;;;;;;;;;5010085;28;20065;-71
2021/11/15 06:27:29;;;;;;;2.28;1.63;;;;;;;;;;5007742;28;20128;-71
2021/11/15 06:29:55;;;;;;;3.95;3.28;;;;;;;;;;5008171;28;20117;-71
2021/11/15 06:32:21;;;;;;;4.88;3.50;;;;;;;;;;5007579;28;20030;-71
2021/11/15 06:34:46;;;;;;;2.30;2.10;;;;;;;;;;5008578;28;20026;-71
2021/11/15 06:37:12;;;;;;;1.40;1.27;;;;;;;;;;5006559;28;20400;-72
2021/11/15 06:39:38;;;;;;;2.45;1.35;;;;;;;;;;5007613;28;20374;-72
2021/11/15 06:42:04;;;;;;;3.42;1.98;;;;;;;;;;5009880;28;20033;-70
2021/11/15 06:44:31;;;;;;;1.83;1.73;;;;;;;;;;5008304;28;20037;-73
2021/11/15 06:46:58;;;;;;;22.15;4.53;;;;;;;;;;5013625;28;20052;-78
2021/11/15 06:49:24;;;;;;;11.70;2.92;;;;;;;;;;5003551;28;20025;-69
2021/11/15 06:51:50;;;;;;;1.67;1.58;;;;;;;;;;5010663;28;20038;-70
2021/11/15 06:54:16;;;;;;;1.27;0.95;;;;;;;;;;5009904;28;20033;-70
2021/11/15 06:56:42;;;;;;;2.63;1.52;;;;;;;;;;5006484;28;20034;-71
2021/11/15 06:59:08;;;;;;;1.52;1.38;;;;;;;;;;5009024;28;20044;-70
2021/11/15 07:01:36;;;;;;;2.03;1.38;;;;;;;;;;5009155;28;20026;-70
2021/11/15 07:04:02;;;;;;;2.38;2.00;;;;;;;;;;5007936;28;20049;-71
2021/11/15 07:06:28;;;;;;;8.63;3.40;;;;;;;;;;5006601;28;20539;-71
2021/11/15 07:08:54;;;;;;;3.03;2.83;;;;;;;;;;5009855;28;20063;-72
2021/11/15 07:11:20;;;;;;;3.83;2.63;;;;;;;;;;5006591;28;20038;-71
2021/11/15 07:13:46;;;;;;;5.55;3.08;;;;;;;;;;5017256;28;20084;-71
2021/11/15 07:16:12;;;;;;;0.43;0.43;;;;;;;;;;5018172;28;20076;-70
2021/11/15 07:18:39;;;;;;;1.58;1.15;;;;;;;;;;5008762;28;20030;-71
2021/11/15 07:21:05;;;;;;;0.93;0.93;;;;;;;;;;5008099;28;20029;-71
2021/11/15 07:23:31;;;;;;;3.05;2.20;;;;;;;;;;5020576;28;20025;-70
2021/11/15 07:25:57;;;;;;;4.13;2.72;;;;;;;;;;5011116;28;20038;-69
2021/11/15 07:28:23;;;;;;;2.60;2.22;;;;;;;;;;5018872;28;20033;-72
2021/11/15 07:30:54;;;;;;;12.02;4.07;;;;;;;;;;5007222;28;20029;-70
2021/11/15 07:33:20;;;;;;;5.40;1.55;;;;;;;;;;5011065;28;20034;-72
2021/11/15 07:35:48;;;;;;;2.33;2.22;;;;;;;;;;5006879;28;20219;-72
2021/11/15 07:38:14;;;;;;;4.10;3.00;;;;;;;;;;5008735;28;20489;-72
2021/11/15 07:40:40;;;;;;;0.82;0.82;;;;;;;;;;5006989;28;20042;-72
2021/11/15 07:43:06;;;;;;;5.22;4.60;;;;;;;;;;5009086;28;20022;-72
2021/11/15 07:45:32;;;;;;;3.20;2.50;;;;;;;;;;5007419;28;20041;-71
2021/11/15 07:47:58;;;;;;;3.28;2.35;;;;;;;;;;5008268;28;20045;-71
2021/11/15 07:50:23;;;;;;;3.13;2.33;;;;;;;;;;5005923;28;20032;-71
2021/11/15 07:52:49;;;;;;;3.45;3.15;;;;;;;;;;5011711;28;20633;-71
2021/11/15 07:55:16;;;;;;;5.28;1.90;;;;;;;;;;5010761;28;20473;-72
2021/11/15 07:57:42;;;;;;;3.03;2.28;;;;;;;;;;5006161;28;20392;-72
2021/11/15 08:00:09;;;;;;;3.90;3.42;;;;;;;;;;5010777;28;20570;-72
2021/11/15 08:02:35;;;;;;;3.58;1.38;;;;;;;;;;5011218;28;20472;-72
2021/11/15 08:05:01;;;;;;;10.10;4.05;;;;;;;;;;5011801;28;20034;-72
2021/11/15 08:07:27;;;;;;;1.98;1.88;;;;;;;;;;5011007;28;20026;-73
2021/11/15 08:09:53;;;;;;;3.28;2.88;;;;;;;;;;5011588;28;20041;-71
2021/11/15 08:12:20;;;;;;;1.50;1.40;;;;;;;;;;5010986;28;20034;-73
2021/11/15 08:14:46;;;;;;;2.70;2.50;;;;;;;;;;5011339;28;20029;-74
2021/11/15 08:17:13;;;;;;;2.92;2.15;;;;;;;;;;5008323;28;20121;-73
2021/11/15 08:19:40;;;;;;;3.70;1.40;;;;;;;;;;5011533;28;20117;-74
2021/11/15 08:22:06;;;;;;;19.00;4.38;;;;;;;;;;5006392;28;20030;-74
2021/11/15 08:24:54;;;;;;;1.52;1.35;;;;;;;;;;5011415;28;20667;-74
2021/11/15 08:27:21;;;;;;;1.40;1.30;;;;;;;;;;5011533;28;20068;-74
2021/11/15 08:29:47;;;;;;;4.28;2.60;;;;;;;;;;5022488;28;20030;-74
2021/11/15 08:32:13;;;;;;;0.68;0.65;;;;;;;;;;5009636;28;20036;-73
2021/11/15 08:34:40;;;;;;;1.20;1.20;;;;;;;;;;5011331;28;20033;-74
2021/11/15 08:37:06;;;;;;;2.45;1.55;;;;;;;;;;5009956;28;20034;-73
2021/11/15 08:39:33;;;;;;;1.67;1.58;;;;;;;;;;5010870;28;20067;-73
2021/11/15 08:42:00;;;;;;;4.07;2.97;;;;;;;;;;5009377;28;20061;-74
2021/11/15 08:44:27;;;;;;;3.47;2.40;;;;;;;;;;5010691;28;20033;-74
2021/11/15 08:46:54;;;;;;;2.60;1.17;;;;;;;;;;5009820;28;20033;-74
2021/11/15 08:49:25;;;;;;;0.85;0.68;;;;;;;;;;5010720;28;20282;-75
2021/11/15 08:51:51;;;;;;;6.72;3.03;;;;;;;;;;5009163;28;20485;-75
2021/11/15 08:54:18;;;;;;;2.35;1.42;;;;;;;;;;5011021;28;20044;-74
2021/11/15 08:56:45;;;;;;;2.10;1.60;;;;;;;;;;5011782;28;20025;-74
2021/11/15 08:59:11;;;;;;;1.20;1.02;;;;;;;;;;5009377;28;20053;-75
2021/11/15 09:01:37;;;;;;;9.05;2.22;;;;;;;;;;5009956;28;20034;-74
2021/11/15 09:04:03;;;;;;;1.42;1.33;;;;;;;;;;5009163;28;20068;-74
2021/11/15 09:06:30;;;;;;;7.13;1.92;;;;;;;;;;5008640;28;20030;-73
2021/11/15 09:08:56;;;;;;;1.40;1.30;;;;;;;;;;5008083;28;20551;-74
2021/11/15 09:11:23;;;;;;;1.65;1.55;;;;;;;;;;5009664;28;20037;-73
2021/11/15 09:13:48;;;;;;;3.50;2.58;;;;;;;;;;5015327;28;20048;-72
2021/11/15 09:16:15;;;;;;;2.38;1.70;;;;;;;;;;5013887;28;20026;-72
2021/11/15 09:18:41;;;;;;;2.58;1.35;;;;;;;;;;5002629;28;20026;-73
2021/11/15 09:21:07;;;;;;;2.45;2.25;;;;;;;;;;5008075;28;20053;-72
2021/11/15 09:23:35;;;;;;;4.28;1.98;;;;;;;;;;5007747;28;20432;-72
2021/11/15 09:26:01;;;;;;;1.20;0.95;;;;;;;;;;5007830;28;20058;-73
2021/11/15 09:28:27;;;;;;;0.28;0.28;;;;;;;;;;5011238;28;20445;-72
2021/11/15 09:30:53;;;;;;;1.80;1.67;;;;;;;;;;5008100;28;20038;-72
2021/11/15 09:33:19;;;;;;;0.80;0.80;;;;;;;;;;5011813;28;20547;-72
2021/11/15 09:35:49;;;;;;;1.92;1.00;;;;;;;;;;5007749;28;20022;-72
2021/11/15 09:38:16;;;;;;;0.88;0.75;;;;;;;;;;5010519;28;20022;-72
2021/11/15 09:40:42;;;;;;;0.77;0.77;;;;;;;;;;5011499;28;20080;-73
2021/11/15 09:43:08;;;;;;;4.88;3.28;;;;;;;;;;5007906;28;20022;-71
2021/11/15 09:45:34;;;;;;;5.90;3.35;;;;;;;;;;5010968;28;20034;-72
2021/11/15 09:48:00;;;;;;;16.65;1.63;;;;;;;;;;5007373;28;20080;-73
2021/11/15 09:50:27;;;;;;;8.32;3.10;;;;;;;;;;5009367;28;20033;-74
2021/11/15 09:52:53;;;;;;;3.20;2.13;;;;;;;;;;5005781;28;20444;-74
2021/11/15 09:55:20;;;;;;;1.75;1.27;;;;;;;;;;5009193;28;20025;-74
2021/11/15 09:57:46;;;;;;;3.78;2.38;;;;;;;;;;5004805;28;20026;-74
2021/11/15 10:00:15;;;;;;;4.68;2.10;;;;;;;;;;5007768;28;20050;-74
2021/11/15 10:02:41;;;;;;;3.10;2.38;;;;;;;;;;5009781;28;20026;-74
2021/11/15 10:05:08;;;;;;;7.25;2.10;;;;;;;;;;5010675;28;20371;-75
2021/11/15 10:07:39;;;;;;;3.67;2.70;;;;;;;;;;5009087;28;20493;-74
2021/11/15 10:10:24;;;;;;;3.20;2.80;;;;;;;;;;5008739;28;20424;-74
2021/11/15 10:13:02;;;;;;;1.60;1.50;;;;;;;;;;5004739;28;20069;-75
2021/11/15 10:15:28;;;;;;;1.67;1.58;;;;;;;;;;5010089;28;20041;-73
2021/11/15 10:17:54;;;;;;;4.25;2.67;;;;;;;;;;5007709;28;20029;-74
2021/11/15 10:20:21;;;;;;;5.28;2.20;;;;;;;;;;5008659;28;20037;-74
2021/11/15 10:22:48;;;;;;;1.90;1.80;;;;;;;;;;5006844;28;20034;-73
2021/11/15 10:25:22;;;;;;;2.00;1.27;;;;;;;;;;4997758;28;20038;-74
2021/11/15 10:28:03;;;;;;;0.75;0.63;;;;;;;;;;5005013;28;20037;-74
2021/11/15 10:30:29;;;;;;;;;;;;;;;;;;5008987;28;20026;-73
2021/11/15 10:32:55;;;;;;;1.50;1.42;;;;;;;;;;4999721;28;19920;-73
2021/11/15 10:35:21;;;;;;;2.88;2.17;;;;;;;;;;5010175;28;20037;-73
2021/11/15 10:37:49;;;;;;;5.05;2.72;;;;;;;;;;5010790;28;20030;-72
2021/11/15 10:40:20;;;;;;;8.65;2.17;;;;;;;;;;5010349;28;20116;-73
2021/11/15 10:42:48;;;;;;;1.20;1.15;;;;;;;;;;5010434;28;20070;-73
2021/11/15 10:45:19;;;;;;;3.85;2.83;;;;;;;;;;5008745;28;20045;-73
2021/11/15 10:47:51;;;;;;;6.40;2.90;;;;;;;;;;5015914;28;20750;-73
2021/11/15 10:50:29;;;;;;;1.27;1.23;;;;;;;;;;5009914;28;20040;-73
2021/11/15 10:53:08;;;;;;;0.30;0.30;;;;;;;;;;5009076;28;20033;-73
2021/11/15 10:55:37;;;;;;;3.25;2.17;;;;;;;;;;5009536;28;20050;-73
2021/11/15 10:58:11;;;;;;;2.33;1.33;;;;;;;;;;5008981;28;20041;-73
2021/11/15 11:00:41;;;;;;;5.50;1.42;;;;;;;;;;5009146;28;20133;-71
2021/11/15 11:03:11;;;;;;;0.90;0.90;;;;;;;;;;5007146;28;20052;-71
2021/11/15 11:05:39;;;;;;;8.43;2.22;;;;;;;;;;5002546;28;20026;-70
2021/11/15 11:08:14;;;;;;;2.30;1.75;;;;;;;;;;5006050;28;20129;-70
2021/11/15 11:10:49;;;;;;;1.88;1.75;;;;;;;;;;5008989;28;20088;-71
2021/11/15 11:13:16;;;;;;;1.30;0.80;;;;;;;;;;5009038;28;20037;-70
2021/11/15 11:15:53;;;;;;;4.18;1.48;;;;;;;;;;5008553;28;20056;-71
2021/11/15 11:18:37;;;;;;;3.97;2.13;;;;;;;;;;4998701;28;20101;-71
2021/11/15 11:26:26;;;;;;;1.80;1.70;;;;;;;;;;5011388;28;20052;-70
2021/11/15 11:28:55;;;;;;;2.05;1.90;;;;;;;;;;5012462;28;20370;-71
2021/11/15 11:31:21;;;;;;;1.20;1.15;;;;;;;;;;5013395;28;20040;-71
2021/11/15 11:33:47;;;;;;;0.43;0.43;;;;;;;;;;5013213;28;20383;-69
2021/11/15 11:36:13;;;;;;;1.52;1.42;;;;;;;;;;5013292;28;20021;-70
2021/11/15 11:38:40;;;;;;;3.67;3.35;;;;;;;;;;5011864;28;20025;-70
2021/11/15 11:41:06;;;;;;;2.92;1.58;;;;;;;;;;5015604;28;20029;-71
2021/11/15 11:43:32;;;;;;;5.35;3.63;;;;;;;;;;5011735;28;20124;-71
2021/11/15 11:45:58;;;;;;;7.82;1.40;;;;;;;;;;5010949;28;20100;-71
2021/11/15 11:48:25;;;;;;;0.43;0.43;;;;;;;;;;5012541;28;20053;-71
2021/11/15 11:50:52;;;;;;;1.50;1.38;;;;;;;;;;5008032;28;20038;-71
2021/11/15 11:53:24;;;;;;;0.68;0.65;;;;;;;;;;5011909;28;20033;-71
2021/11/15 11:55:51;;;;;;;7.88;4.88;;;;;;;;;;5012330;28;20022;-71
2021/11/15 11:58:36;;;;;;;6.07;2.20;;;;;;;;;;5011648;28;20038;-71
2021/11/15 12:01:04;;;;;;;2.67;1.65;;;;;;;;;;5012373;28;20049;-70
2021/11/15 12:03:31;;;;;;;0.82;0.75;;;;;;;;;;5010876;28;20488;-71
2021/11/15 12:06:02;;;;;;;2.20;1.95;;;;;;;;;;5012149;28;20543;-72
2021/11/15 12:08:47;;;;;;;4.15;2.28;;;;;;;;;;5011373;28;20030;-70
2021/11/15 12:11:23;;;;;;;1.38;1.27;;;;;;;;;;5009930;28;20104;-71
2021/11/15 12:13:49;;;;;;;2.22;1.70;;;;;;;;;;5011916;28;20124;-71
2021/11/15 12:16:16;;;;;;;2.55;2.35;;;;;;;;;;5012172;28;20084;-70
2021/11/15 12:18:53;;;;;;;2.47;2.08;;;;;;;;;;5012462;28;20018;-72
2021/11/15 12:21:21;;;;;;;1.88;1.52;;;;;;;;;;5012111;28;20029;-71
2021/11/15 12:23:53;;;;;;;1.85;1.73;;;;;;;;;;5011789;28;20439;-70
2021/11/15 12:26:26;;;;;;;2.00;1.77;;;;;;;;;;5011717;28;20044;-71
2021/11/15 12:28:54;;;;;;;1.83;1.73;;;;;;;;;;5011842;28;20026;-71
2021/11/15 12:31:38;;;;;;;0.75;0.75;;;;;;;;;;5011902;28;20037;-71
2021/11/15 12:34:05;;;;;;;1.67;1.58;;;;;;;;;;5011949;28;20034;-71
2021/11/15 12:36:40;;;;;;;3.30;1.38;;;;;;;;;;5011694;28;20030;-70
2021/11/15 12:39:13;;;;;;;3.70;1.88;;;;;;;;;;5009234;28;20393;-71
2021/11/15 12:41:41;;;;;;;0.45;0.45;;;;;;;;;;5011776;28;20389;-71
2021/11/15 12:44:14;;;;;;;7.43;1.58;;;;;;;;;;5009499;28;20031;-70
2021/11/15 12:46:42;;;;;;;1.50;1.27;;;;;;;;;;5003551;28;20038;-71
2021/11/15 12:49:26;;;;;;;4.15;2.20;;;;;;;;;;5011237;28;20069;-71
2021/11/15 12:54:39;;;;;;;12.70;2.30;;;;;;;;;;5012086;28;20121;-71
2021/11/15 12:57:17;;;;;;;1.95;0.82;;;;;;;;;;5011720;28;20040;-70
2021/11/15 12:59:44;;;;;;;1.23;1.17;;;;;;;;;;5009425;28;20038;-71
2021/11/15 13:02:10;;;;;;;1.65;1.55;;;;;;;;;;5011078;28;20124;-71
2021/11/15 13:04:36;;;;;;;2.55;1.20;;;;;;;;;;5011798;28;20032;-70
2021/11/15 13:07:03;;;;;;;1.75;1.17;;;;;;;;;;5011968;28;20410;-71
2021/11/15 13:09:30;;;;;;;1.60;1.48;;;;;;;;;;5011051;28;20378;-71
2021/11/15 13:11:56;;;;;;;8.98;2.33;;;;;;;;;;5011232;28;20389;-71
2021/11/15 13:14:22;;;;;;;1.63;1.45;;;;;;;;;;5011534;28;20037;-70
2021/11/15 13:16:48;;;;;;;1.88;1.77;;;;;;;;;;5011573;28;20109;-71
2021/11/15 13:19:15;;;;;;;2.17;1.27;;;;;;;;;;5011513;28;20022;-71
2021/11/15 13:21:42;;;;;;;0.73;0.68;;;;;;;;;;5015644;28;20032;-71
2021/11/15 13:24:09;;;;;;;1.52;1.42;;;;;;;;;;5014880;28;20042;-71
2021/11/15 13:26:36;;;;;;;2.65;2.05;;;;;;;;;;5016117;28;20025;-70
2021/11/15 13:29:03;;;;;;;3.55;1.02;;;;;;;;;;5014719;28;20037;-70
2021/11/15 13:31:29;;;;;;;0.93;0.93;;;;;;;;;;5012719;28;20045;-70
2021/11/15 13:33:55;;;;;;;7.63;2.42;;;;;;;;;;5008449;28;20412;-69
2021/11/15 13:36:21;;;;;;;2.17;1.05;;;;;;;;;;5009063;28;20152;-69
2021/11/15 13:38:47;;;;;;;2.83;2.63;;;;;;;;;;5012288;28;20037;-70
2021/11/15 13:41:13;;;;;;;0.88;0.88;;;;;;;;;;5012393;28;20473;-69
2021/11/15 13:43:41;;;;;;;1.85;1.75;;;;;;;;;;5010346;28;20648;-70
2021/11/15 13:46:08;;;;;;;1.58;1.45;;;;;;;;;;5010582;28;20026;-70
2021/11/15 13:48:35;;;;;;;1.33;1.05;;;;;;;;;;5010125;28;20087;-71
2021/11/15 13:51:01;;;;;;;1.85;1.70;;;;;;;;;;5011167;28;20112;-70
2021/11/15 13:53:27;;;;;;;3.53;1.67;;;;;;;;;;5017218;28;20030;-70
2021/11/15 13:55:53;;;;;;;1.17;1.17;;;;;;;;;;5010561;28;20507;-71
2021/11/15 13:58:19;;;;;;;1.20;0.88;;;;;;;;;;5009516;28;20026;-71
2021/11/15 14:00:45;;;;;;;1.25;1.25;;;;;;;;;;5010007;28;20053;-71
2021/11/15 14:03:12;;;;;;;3.53;2.90;;;;;;;;;;5011080;28;20026;-71
2021/11/15 14:05:38;;;;;;;2.97;2.58;;;;;;;;;;5010253;28;20030;-71
2021/11/15 14:08:05;;;;;;;6.82;1.88;;;;;;;;;;5009340;28;20038;-71
2021/11/15 14:10:30;;;;;;;2.65;2.40;;;;;;;;;;5008933;28;20033;-71
2021/11/15 14:12:57;;;;;;;5.72;2.50;;;;;;;;;;5011361;28;20033;-70
2021/11/15 14:15:23;;;;;;;9.35;1.10;;;;;;;;;;5009681;28;20076;-71
2021/11/15 14:17:49;;;;;;;1.83;1.60;;;;;;;;;;5008195;28;20053;-71
2021/11/15 14:20:16;;;;;;;2.53;0.85;;;;;;;;;;5009633;28;20026;-70
2021/11/15 14:22:43;;;;;;;3.60;1.33;;;;;;;;;;5008645;28;20433;-70
2021/11/15 14:25:09;;;;;;;3.63;1.75;;;;;;;;;;5006357;28;20041;-70
2021/11/15 14:27:36;;;;;;;2.95;2.05;;;;;;;;;;5008949;28;20029;-70
2021/11/15 14:30:04;;;;;;;9.88;2.10;;;;;;;;;;5009303;28;20048;-71
2021/11/15 14:32:31;;;;;;;3.53;1.75;;;;;;;;;;5008786;28;20079;-70
2021/11/15 14:34:57;;;;;;;7.78;1.27;;;;;;;;;;5008089;28;20033;-71
2021/11/15 14:37:23;;;;;;;2.92;1.38;;;;;;;;;;5012058;28;20030;-72
2021/11/15 14:39:49;;;;;;;2.08;1.88;;;;;;;;;;5011886;28;20136;-71
2021/11/15 14:42:15;;;;;;;1.95;1.17;;;;;;;;;;5010043;28;20033;-71
2021/11/15 14:44:42;;;;;;;1.17;1.08;;;;;;;;;;5010666;28;20164;-72
2021/11/15 14:47:08;;;;;;;1.58;1.48;;;;;;;;;;5011006;28;20040;-71
2021/11/15 14:49:35;;;;;;;0.88;0.88;;;;;;;;;;5010369;28;20459;-72
2021/11/15 14:52:01;;;;;;;0.63;0.63;;;;;;;;;;5008870;28;20034;-71